sensor_id;sensor_type;location;lat;lon;timestamp;P1;durP1;ratioP1;P2;durP2;ratioP2
42194;SDS011;27863;49.440;11.102;2024-02-28T00:01:19;19.27;;;17.27;;
42194;SDS011;27863;49.440;11.102;2024-02-28T00:04:20;18.27;;;16.30;;
42194;SDS011;27863;49.440;11.102;2024-02-28T00:07:20;20.57;;;16.67;;
42194;SDS011;27863;49.440;11.102;2024-02-28T00:10:21;17.40;;;15.67;;
42194;SDS011;27863;49.440;11.102;2024-02-28T00:13:22;17.53;;;15.23;;
42194;SDS011;27863;49.440;11.102;2024-02-28T00:16:23;22.27;;;16.10;;
42194;SDS011;27863;49.440;11.102;2024-02-28T00:19:23;21.27;;;17.00;;
42194;SDS011;27863;49.440;11.102;2024-02-28T00:22:25;25.30;;;16.97;;
42194;SDS011;27863;49.440;11.102;2024-02-28T00:25:25;23.97;;;17.10;;
42194;SDS011;27863;49.440;11.102;2024-02-28T00:28:26;22.33;;;17.17;;
42194;SDS011;27863;49.440;11.102;2024-02-28T00:31:26;18.70;;;16.03;;
42194;SDS011;27863;49.440;11.102;2024-02-28T00:34:27;18.23;;;16.20;;
42194;SDS011;27863;49.440;11.102;2024-02-28T00:37:31;18.10;;;15.13;;
42194;SDS011;27863;49.440;11.102;2024-02-28T00:40:31;23.07;;;16.37;;
42194;SDS011;27863;49.440;11.102;2024-02-28T00:43:32;19.90;;;15.87;;
42194;SDS011;27863;49.440;11.102;2024-02-28T00:46:33;18.37;;;15.63;;
42194;SDS011;27863;49.440;11.102;2024-02-28T00:49:34;18.40;;;16.40;;
42194;SDS011;27863;49.440;11.102;2024-02-28T00:52:35;26.33;;;16.67;;
42194;SDS011;27863;49.440;11.102;2024-02-28T00:55:35;17.33;;;15.33;;
42194;SDS011;27863;49.440;11.102;2024-02-28T00:58:36;20.40;;;16.67;;
42194;SDS011;27863;49.440;11.102;2024-02-28T01:01:36;18.97;;;15.93;;
42194;SDS011;27863;49.440;11.102;2024-02-28T01:04:37;20.23;;;15.60;;
42194;SDS011;27863;49.440;11.102;2024-02-28T01:07:37;16.53;;;14.83;;
42194;SDS011;27863;49.440;11.102;2024-02-28T01:10:38;19.03;;;16.20;;
42194;SDS011;27863;49.440;11.102;2024-02-28T01:13:38;19.03;;;16.23;;
42194;SDS011;27863;49.440;11.102;2024-02-28T01:16:39;18.63;;;16.37;;
42194;SDS011;27863;49.440;11.102;2024-02-28T01:19:39;18.27;;;16.33;;
42194;SDS011;27863;49.440;11.102;2024-02-28T01:22:40;18.47;;;16.33;;
42194;SDS011;27863;49.440;11.102;2024-02-28T01:25:40;16.87;;;15.17;;
42194;SDS011;27863;49.440;11.102;2024-02-28T01:28:41;20.70;;;16.80;;
42194;SDS011;27863;49.440;11.102;2024-02-28T01:31:43;21.47;;;16.40;;
42194;SDS011;27863;49.440;11.102;2024-02-28T01:34:44;20.37;;;16.37;;
42194;SDS011;27863;49.440;11.102;2024-02-28T01:37:44;18.10;;;15.80;;
42194;SDS011;27863;49.440;11.102;2024-02-28T01:40:45;18.87;;;16.27;;
42194;SDS011;27863;49.440;11.102;2024-02-28T01:43:46;17.53;;;15.63;;
42194;SDS011;27863;49.440;11.102;2024-02-28T01:46:47;21.63;;;16.30;;
42194;SDS011;27863;49.440;11.102;2024-02-28T01:49:48;19.37;;;16.10;;
42194;SDS011;27863;49.440;11.102;2024-02-28T01:52:50;22.67;;;15.50;;
42194;SDS011;27863;49.440;11.102;2024-02-28T01:55:51;17.73;;;15.90;;
42194;SDS011;27863;49.440;11.102;2024-02-28T01:58:52;19.60;;;16.17;;
42194;SDS011;27863;49.440;11.102;2024-02-28T02:01:54;20.20;;;15.23;;
42194;SDS011;27863;49.440;11.102;2024-02-28T02:04:55;17.33;;;15.53;;
42194;SDS011;27863;49.440;11.102;2024-02-28T02:07:58;20.87;;;16.20;;
42194;SDS011;27863;49.440;11.102;2024-02-28T02:10:59;19.07;;;16.43;;
42194;SDS011;27863;49.440;11.102;2024-02-28T02:13:59;20.60;;;16.17;;
42194;SDS011;27863;49.440;11.102;2024-02-28T02:16:59;22.83;;;15.87;;
42194;SDS011;27863;49.440;11.102;2024-02-28T02:20:00;17.77;;;15.93;;
42194;SDS011;27863;49.440;11.102;2024-02-28T02:23:02;20.23;;;16.97;;
42194;SDS011;27863;49.440;11.102;2024-02-28T02:26:03;19.20;;;17.17;;
42194;SDS011;27863;49.440;11.102;2024-02-28T02:29:04;20.30;;;15.93;;
42194;SDS011;27863;49.440;11.102;2024-02-28T02:32:04;18.43;;;15.20;;
42194;SDS011;27863;49.440;11.102;2024-02-28T02:35:05;20.17;;;15.77;;
42194;SDS011;27863;49.440;11.102;2024-02-28T02:38:05;18.03;;;16.13;;
42194;SDS011;27863;49.440;11.102;2024-02-28T02:41:06;16.47;;;14.77;;
42194;SDS011;27863;49.440;11.102;2024-02-28T02:44:08;18.20;;;15.47;;
42194;SDS011;27863;49.440;11.102;2024-02-28T02:47:09;19.97;;;15.13;;
42194;SDS011;27863;49.440;11.102;2024-02-28T02:50:09;18.17;;;14.97;;
42194;SDS011;27863;49.440;11.102;2024-02-28T02:53:10;16.83;;;14.63;;
42194;SDS011;27863;49.440;11.102;2024-02-28T02:56:11;15.50;;;13.93;;
42194;SDS011;27863;49.440;11.102;2024-02-28T02:59:11;17.20;;;15.37;;
42194;SDS011;27863;49.440;11.102;2024-02-28T03:02:14;21.57;;;15.57;;
42194;SDS011;27863;49.440;11.102;2024-02-28T03:05:15;16.67;;;14.80;;
42194;SDS011;27863;49.440;11.102;2024-02-28T03:08:17;17.83;;;15.23;;
42194;SDS011;27863;49.440;11.102;2024-02-28T03:11:17;21.23;;;15.53;;
42194;SDS011;27863;49.440;11.102;2024-02-28T03:14:18;18.03;;;16.13;;
42194;SDS011;27863;49.440;11.102;2024-02-28T03:17:19;20.37;;;17.23;;
42194;SDS011;27863;49.440;11.102;2024-02-28T03:20:19;18.03;;;15.33;;
42194;SDS011;27863;49.440;11.102;2024-02-28T03:23:20;19.13;;;15.53;;
42194;SDS011;27863;49.440;11.102;2024-02-28T03:26:20;20.40;;;16.40;;
42194;SDS011;27863;49.440;11.102;2024-02-28T03:29:22;22.60;;;14.73;;
42194;SDS011;27863;49.440;11.102;2024-02-28T03:32:22;19.10;;;16.27;;
42194;SDS011;27863;49.440;11.102;2024-02-28T03:35:22;17.77;;;15.87;;
42194;SDS011;27863;49.440;11.102;2024-02-28T03:38:23;19.97;;;15.47;;
42194;SDS011;27863;49.440;11.102;2024-02-28T03:41:24;16.83;;;15.13;;
42194;SDS011;27863;49.440;11.102;2024-02-28T03:44:24;19.90;;;16.03;;
42194;SDS011;27863;49.440;11.102;2024-02-28T03:47:25;17.67;;;15.10;;
42194;SDS011;27863;49.440;11.102;2024-02-28T03:50:28;18.07;;;15.73;;
42194;SDS011;27863;49.440;11.102;2024-02-28T03:53:29;18.80;;;16.87;;
42194;SDS011;27863;49.440;11.102;2024-02-28T03:56:29;19.40;;;16.07;;
42194;SDS011;27863;49.440;11.102;2024-02-28T03:59:31;19.90;;;16.10;;
42194;SDS011;27863;49.440;11.102;2024-02-28T04:02:32;17.57;;;15.83;;
42194;SDS011;27863;49.440;11.102;2024-02-28T04:05:32;21.93;;;17.87;;
42194;SDS011;27863;49.440;11.102;2024-02-28T04:08:33;20.27;;;16.20;;
42194;SDS011;27863;49.440;11.102;2024-02-28T04:11:33;21.13;;;16.20;;
42194;SDS011;27863;49.440;11.102;2024-02-28T04:14:36;22.30;;;16.23;;
42194;SDS011;27863;49.440;11.102;2024-02-28T04:17:38;18.77;;;15.63;;
42194;SDS011;27863;49.440;11.102;2024-02-28T04:20:39;17.67;;;15.93;;
42194;SDS011;27863;49.440;11.102;2024-02-28T04:23:40;21.57;;;16.50;;
42194;SDS011;27863;49.440;11.102;2024-02-28T04:26:41;18.50;;;16.60;;
42194;SDS011;27863;49.440;11.102;2024-02-28T04:29:42;20.20;;;14.97;;
42194;SDS011;27863;49.440;11.102;2024-02-28T04:32:43;16.47;;;14.17;;
42194;SDS011;27863;49.440;11.102;2024-02-28T04:35:44;18.90;;;14.63;;
42194;SDS011;27863;49.440;11.102;2024-02-28T04:38:44;17.93;;;14.80;;
42194;SDS011;27863;49.440;11.102;2024-02-28T04:41:45;21.53;;;14.10;;
42194;SDS011;27863;49.440;11.102;2024-02-28T04:44:45;15.70;;;13.73;;
42194;SDS011;27863;49.440;11.102;2024-02-28T04:47:46;16.83;;;14.80;;
42194;SDS011;27863;49.440;11.102;2024-02-28T04:50:46;17.17;;;13.57;;
42194;SDS011;27863;49.440;11.102;2024-02-28T04:53:46;18.17;;;13.57;;
42194;SDS011;27863;49.440;11.102;2024-02-28T04:56:47;14.53;;;13.17;;
42194;SDS011;27863;49.440;11.102;2024-02-28T04:59:48;16.90;;;14.33;;
42194;SDS011;27863;49.440;11.102;2024-02-28T05:02:48;16.63;;;14.03;;
42194;SDS011;27863;49.440;11.102;2024-02-28T05:05:49;16.90;;;13.60;;
42194;SDS011;27863;49.440;11.102;2024-02-28T05:08:49;13.33;;;11.93;;
42194;SDS011;27863;49.440;11.102;2024-02-28T05:11:50;17.30;;;12.50;;
42194;SDS011;27863;49.440;11.102;2024-02-28T05:14:51;14.27;;;12.73;;
42194;SDS011;27863;49.440;11.102;2024-02-28T05:17:51;13.43;;;12.03;;
42194;SDS011;27863;49.440;11.102;2024-02-28T05:20:52;15.67;;;14.00;;
42194;SDS011;27863;49.440;11.102;2024-02-28T05:23:53;14.37;;;12.07;;
42194;SDS011;27863;49.440;11.102;2024-02-28T05:26:53;14.47;;;12.70;;
42194;SDS011;27863;49.440;11.102;2024-02-28T05:29:54;13.07;;;11.30;;
42194;SDS011;27863;49.440;11.102;2024-02-28T05:32:54;16.43;;;14.67;;
42194;SDS011;27863;49.440;11.102;2024-02-28T05:35:56;17.37;;;12.97;;
42194;SDS011;27863;49.440;11.102;2024-02-28T05:38:59;15.93;;;11.83;;
42194;SDS011;27863;49.440;11.102;2024-02-28T05:42:01;13.10;;;11.50;;
42194;SDS011;27863;49.440;11.102;2024-02-28T05:45:01;15.13;;;13.53;;
42194;SDS011;27863;49.440;11.102;2024-02-28T05:48:02;16.43;;;12.70;;
42194;SDS011;27863;49.440;11.102;2024-02-28T05:51:03;13.80;;;12.37;;
42194;SDS011;27863;49.440;11.102;2024-02-28T05:54:04;13.50;;;10.80;;
42194;SDS011;27863;49.440;11.102;2024-02-28T05:57:04;12.93;;;11.53;;
42194;SDS011;27863;49.440;11.102;2024-02-28T06:00:05;12.03;;;10.63;;
42194;SDS011;27863;49.440;11.102;2024-02-28T06:03:11;12.77;;;11.33;;
42194;SDS011;27863;49.440;11.102;2024-02-28T06:06:12;14.67;;;12.03;;
42194;SDS011;27863;49.440;11.102;2024-02-28T06:09:15;12.87;;;11.53;;
42194;SDS011;27863;49.440;11.102;2024-02-28T06:12:16;12.57;;;11.27;;
42194;SDS011;27863;49.440;11.102;2024-02-28T06:15:17;10.97;;;9.87;;
42194;SDS011;27863;49.440;11.102;2024-02-28T06:18:17;11.53;;;10.33;;
42194;SDS011;27863;49.440;11.102;2024-02-28T06:21:18;12.57;;;9.83;;
42194;SDS011;27863;49.440;11.102;2024-02-28T06:24:22;11.13;;;9.57;;
42194;SDS011;27863;49.440;11.102;2024-02-28T06:27:23;11.23;;;10.13;;
42194;SDS011;27863;49.440;11.102;2024-02-28T06:30:23;13.23;;;9.17;;
42194;SDS011;27863;49.440;11.102;2024-02-28T06:33:25;12.03;;;9.97;;
42194;SDS011;27863;49.440;11.102;2024-02-28T06:36:26;10.57;;;9.57;;
42194;SDS011;27863;49.440;11.102;2024-02-28T06:39:26;11.20;;;9.53;;
42194;SDS011;27863;49.440;11.102;2024-02-28T06:42:27;11.33;;;10.33;;
42194;SDS011;27863;49.440;11.102;2024-02-28T06:45:27;10.60;;;9.60;;
42194;SDS011;27863;49.440;11.102;2024-02-28T06:48:28;10.77;;;9.67;;
42194;SDS011;27863;49.440;11.102;2024-02-28T06:51:29;10.80;;;9.80;;
42194;SDS011;27863;49.440;11.102;2024-02-28T06:54:33;10.93;;;9.93;;
42194;SDS011;27863;49.440;11.102;2024-02-28T06:57:33;10.80;;;9.73;;
42194;SDS011;27863;49.440;11.102;2024-02-28T07:00:35;12.00;;;10.77;;
42194;SDS011;27863;49.440;11.102;2024-02-28T07:03:36;12.13;;;10.83;;
42194;SDS011;27863;49.440;11.102;2024-02-28T07:06:37;12.77;;;11.23;;
42194;SDS011;27863;49.440;11.102;2024-02-28T07:09:38;13.50;;;12.17;;
42194;SDS011;27863;49.440;11.102;2024-02-28T07:12:40;11.00;;;9.90;;
42194;SDS011;27863;49.440;11.102;2024-02-28T07:15:41;10.67;;;9.30;;
42194;SDS011;27863;49.440;11.102;2024-02-28T07:18:41;12.83;;;10.07;;
42194;SDS011;27863;49.440;11.102;2024-02-28T07:21:42;16.57;;;12.33;;
42194;SDS011;27863;49.440;11.102;2024-02-28T07:24:43;12.77;;;11.47;;
42194;SDS011;27863;49.440;11.102;2024-02-28T07:27:43;15.00;;;12.60;;
42194;SDS011;27863;49.440;11.102;2024-02-28T07:30:44;12.57;;;10.27;;
42194;SDS011;27863;49.440;11.102;2024-02-28T07:33:45;15.73;;;11.53;;
42194;SDS011;27863;49.440;11.102;2024-02-28T07:36:46;13.20;;;11.80;;
42194;SDS011;27863;49.440;11.102;2024-02-28T07:39:47;14.13;;;11.13;;
42194;SDS011;27863;49.440;11.102;2024-02-28T07:42:48;13.47;;;11.03;;
42194;SDS011;27863;49.440;11.102;2024-02-28T07:45:49;15.13;;;13.47;;
42194;SDS011;27863;49.440;11.102;2024-02-28T07:48:49;18.77;;;13.00;;
42194;SDS011;27863;49.440;11.102;2024-02-28T07:51:50;19.40;;;12.37;;
42194;SDS011;27863;49.440;11.102;2024-02-28T07:54:50;12.90;;;11.57;;
42194;SDS011;27863;49.440;11.102;2024-02-28T07:57:55;15.90;;;12.23;;
42194;SDS011;27863;49.440;11.102;2024-02-28T08:00:55;17.63;;;11.33;;
42194;SDS011;27863;49.440;11.102;2024-02-28T08:03:59;16.00;;;12.00;;
42194;SDS011;27863;49.440;11.102;2024-02-28T08:07:00;15.47;;;12.83;;
42194;SDS011;27863;49.440;11.102;2024-02-28T08:10:01;13.63;;;12.07;;
42194;SDS011;27863;49.440;11.102;2024-02-28T08:13:02;16.10;;;12.97;;
42194;SDS011;27863;49.440;11.102;2024-02-28T08:16:02;22.77;;;13.20;;
42194;SDS011;27863;49.440;11.102;2024-02-28T08:19:03;13.37;;;11.97;;
42194;SDS011;27863;49.440;11.102;2024-02-28T08:22:05;16.27;;;13.47;;
42194;SDS011;27863;49.440;11.102;2024-02-28T08:25:06;17.00;;;12.87;;
42194;SDS011;27863;49.440;11.102;2024-02-28T08:28:07;19.83;;;12.70;;
42194;SDS011;27863;49.440;11.102;2024-02-28T08:31:07;13.90;;;12.57;;
42194;SDS011;27863;49.440;11.102;2024-02-28T08:34:09;15.53;;;12.83;;
42194;SDS011;27863;49.440;11.102;2024-02-28T08:37:13;18.27;;;12.17;;
42194;SDS011;27863;49.440;11.102;2024-02-28T08:40:13;14.43;;;11.67;;
42194;SDS011;27863;49.440;11.102;2024-02-28T08:43:14;16.93;;;12.47;;
42194;SDS011;27863;49.440;11.102;2024-02-28T08:46:15;14.47;;;12.97;;
42194;SDS011;27863;49.440;11.102;2024-02-28T08:49:18;13.07;;;11.70;;
42194;SDS011;27863;49.440;11.102;2024-02-28T08:52:18;16.07;;;14.40;;
42194;SDS011;27863;49.440;11.102;2024-02-28T08:55:19;13.97;;;12.50;;
42194;SDS011;27863;49.440;11.102;2024-02-28T08:58:21;17.00;;;13.70;;
42194;SDS011;27863;49.440;11.102;2024-02-28T09:01:22;13.87;;;12.53;;
42194;SDS011;27863;49.440;11.102;2024-02-28T09:04:22;14.60;;;11.77;;
42194;SDS011;27863;49.440;11.102;2024-02-28T09:07:24;14.47;;;11.77;;
42194;SDS011;27863;49.440;11.102;2024-02-28T09:10:24;12.47;;;11.17;;
42194;SDS011;27863;49.440;11.102;2024-02-28T09:13:25;15.03;;;12.17;;
42194;SDS011;27863;49.440;11.102;2024-02-28T09:16:27;12.53;;;11.30;;
42194;SDS011;27863;49.440;11.102;2024-02-28T09:19:29;12.83;;;11.50;;
42194;SDS011;27863;49.440;11.102;2024-02-28T09:22:30;13.93;;;12.10;;
42194;SDS011;27863;49.440;11.102;2024-02-28T09:25:30;15.80;;;12.27;;
42194;SDS011;27863;49.440;11.102;2024-02-28T09:28:32;12.53;;;11.23;;
42194;SDS011;27863;49.440;11.102;2024-02-28T09:31:33;12.47;;;11.27;;
42194;SDS011;27863;49.440;11.102;2024-02-28T09:34:33;12.27;;;10.73;;
42194;SDS011;27863;49.440;11.102;2024-02-28T09:37:34;12.43;;;11.10;;
42194;SDS011;27863;49.440;11.102;2024-02-28T09:40:34;12.10;;;10.90;;
42194;SDS011;27863;49.440;11.102;2024-02-28T09:43:36;12.53;;;11.37;;
42194;SDS011;27863;49.440;11.102;2024-02-28T09:46:40;12.87;;;10.87;;
42194;SDS011;27863;49.440;11.102;2024-02-28T09:49:41;14.67;;;12.23;;
42194;SDS011;27863;49.440;11.102;2024-02-28T09:52:42;48.17;;;15.17;;
42194;SDS011;27863;49.440;11.102;2024-02-28T09:55:43;10.93;;;9.93;;
42194;SDS011;27863;49.440;11.102;2024-02-28T09:58:44;11.77;;;10.77;;
42194;SDS011;27863;49.440;11.102;2024-02-28T10:01:47;15.63;;;11.20;;
42194;SDS011;27863;49.440;11.102;2024-02-28T10:05:10;12.23;;;10.93;;
42194;SDS011;27863;49.440;11.102;2024-02-28T10:08:11;13.90;;;10.83;;
42194;SDS011;27863;49.440;11.102;2024-02-28T10:11:22;10.70;;;9.33;;
42194;SDS011;27863;49.440;11.102;2024-02-28T10:14:23;11.83;;;10.67;;
42194;SDS011;27863;49.440;11.102;2024-02-28T10:17:24;12.27;;;11.00;;
42194;SDS011;27863;49.440;11.102;2024-02-28T10:20:24;11.93;;;10.73;;
42194;SDS011;27863;49.440;11.102;2024-02-28T10:23:25;11.80;;;10.60;;
42194;SDS011;27863;49.440;11.102;2024-02-28T10:26:27;10.57;;;9.57;;
42194;SDS011;27863;49.440;11.102;2024-02-28T10:29:30;10.90;;;9.80;;
42194;SDS011;27863;49.440;11.102;2024-02-28T10:32:33;12.00;;;10.90;;
42194;SDS011;27863;49.440;11.102;2024-02-28T10:35:38;11.30;;;10.23;;
42194;SDS011;27863;49.440;11.102;2024-02-28T10:38:40;12.53;;;10.80;;
42194;SDS011;27863;49.440;11.102;2024-02-28T10:41:41;11.03;;;10.03;;
42194;SDS011;27863;49.440;11.102;2024-02-28T10:44:42;11.20;;;10.17;;
42194;SDS011;27863;49.440;11.102;2024-02-28T10:47:43;13.30;;;11.83;;
42194;SDS011;27863;49.440;11.102;2024-02-28T10:50:44;11.13;;;10.03;;
42194;SDS011;27863;49.440;11.102;2024-02-28T10:53:45;10.57;;;9.57;;
42194;SDS011;27863;49.440;11.102;2024-02-28T10:56:48;11.50;;;10.50;;
42194;SDS011;27863;49.440;11.102;2024-02-28T10:59:52;10.50;;;9.50;;
42194;SDS011;27863;49.440;11.102;2024-02-28T11:02:53;13.17;;;10.77;;
42194;SDS011;27863;49.440;11.102;2024-02-28T11:05:54;10.87;;;9.87;;
42194;SDS011;27863;49.440;11.102;2024-02-28T11:08:55;12.33;;;11.00;;
42194;SDS011;27863;49.440;11.102;2024-02-28T11:11:57;11.87;;;10.77;;
42194;SDS011;27863;49.440;11.102;2024-02-28T11:14:58;10.90;;;9.80;;
42194;SDS011;27863;49.440;11.102;2024-02-28T11:18:09;12.53;;;11.13;;
42194;SDS011;27863;49.440;11.102;2024-02-28T11:21:16;11.73;;;10.63;;
42194;SDS011;27863;49.440;11.102;2024-02-28T11:24:17;11.13;;;10.03;;
42194;SDS011;27863;49.440;11.102;2024-02-28T11:27:18;10.50;;;9.60;;
42194;SDS011;27863;49.440;11.102;2024-02-28T11:30:19;15.13;;;9.80;;
42194;SDS011;27863;49.440;11.102;2024-02-28T11:33:20;10.10;;;9.20;;
42194;SDS011;27863;49.440;11.102;2024-02-28T11:36:21;11.23;;;10.10;;
42194;SDS011;27863;49.440;11.102;2024-02-28T11:39:22;11.10;;;10.00;;
42194;SDS011;27863;49.440;11.102;2024-02-28T11:42:24;10.97;;;9.87;;
42194;SDS011;27863;49.440;11.102;2024-02-28T11:45:25;12.07;;;10.93;;
42194;SDS011;27863;49.440;11.102;2024-02-28T11:48:26;11.83;;;10.63;;
42194;SDS011;27863;49.440;11.102;2024-02-28T11:51:27;10.57;;;9.67;;
42194;SDS011;27863;49.440;11.102;2024-02-28T11:54:29;11.20;;;10.03;;
42194;SDS011;27863;49.440;11.102;2024-02-28T11:57:30;11.63;;;10.53;;
42194;SDS011;27863;49.440;11.102;2024-02-28T12:00:33;13.40;;;10.80;;
42194;SDS011;27863;49.440;11.102;2024-02-28T12:03:34;9.97;;;8.97;;
42194;SDS011;27863;49.440;11.102;2024-02-28T12:06:34;10.67;;;9.57;;
42194;SDS011;27863;49.440;11.102;2024-02-28T12:09:36;10.23;;;9.30;;
42194;SDS011;27863;49.440;11.102;2024-02-28T12:12:38;11.00;;;9.50;;
42194;SDS011;27863;49.440;11.102;2024-02-28T12:15:39;12.57;;;9.13;;
42194;SDS011;27863;49.440;11.102;2024-02-28T12:18:41;10.73;;;9.73;;
42194;SDS011;27863;49.440;11.102;2024-02-28T12:21:42;11.30;;;10.27;;
42194;SDS011;27863;49.440;11.102;2024-02-28T12:24:42;11.00;;;9.90;;
42194;SDS011;27863;49.440;11.102;2024-02-28T12:27:43;10.30;;;9.30;;
42194;SDS011;27863;49.440;11.102;2024-02-28T12:30:43;10.30;;;9.33;;
42194;SDS011;27863;49.440;11.102;2024-02-28T12:33:44;9.80;;;8.90;;
42194;SDS011;27863;49.440;11.102;2024-02-28T12:36:44;10.73;;;9.20;;
42194;SDS011;27863;49.440;11.102;2024-02-28T12:39:45;11.40;;;10.33;;
42194;SDS011;27863;49.440;11.102;2024-02-28T12:42:47;9.80;;;8.90;;
42194;SDS011;27863;49.440;11.102;2024-02-28T12:45:48;9.50;;;8.60;;
42194;SDS011;27863;49.440;11.102;2024-02-28T12:48:48;9.83;;;8.93;;
42194;SDS011;27863;49.440;11.102;2024-02-28T12:51:49;9.60;;;8.70;;
42194;SDS011;27863;49.440;11.102;2024-02-28T12:54:51;10.70;;;9.60;;
42194;SDS011;27863;49.440;11.102;2024-02-28T12:57:51;10.70;;;9.70;;
42194;SDS011;27863;49.440;11.102;2024-02-28T13:00:52;10.37;;;9.43;;
42194;SDS011;27863;49.440;11.102;2024-02-28T13:03:52;10.33;;;9.33;;
42194;SDS011;27863;49.440;11.102;2024-02-28T13:06:54;9.63;;;8.63;;
42194;SDS011;27863;49.440;11.102;2024-02-28T13:09:56;9.80;;;8.70;;
42194;SDS011;27863;49.440;11.102;2024-02-28T13:12:56;8.17;;;7.37;;
42194;SDS011;27863;49.440;11.102;2024-02-28T13:16:00;7.93;;;7.23;;
42194;SDS011;27863;49.440;11.102;2024-02-28T13:19:01;8.10;;;7.40;;
42194;SDS011;27863;49.440;11.102;2024-02-28T13:22:04;10.83;;;9.43;;
42194;SDS011;27863;49.440;11.102;2024-02-28T13:25:05;9.90;;;8.90;;
42194;SDS011;27863;49.440;11.102;2024-02-28T13:28:05;8.97;;;8.17;;
42194;SDS011;27863;49.440;11.102;2024-02-28T13:31:06;10.10;;;9.07;;
42194;SDS011;27863;49.440;11.102;2024-02-28T13:34:07;9.93;;;8.90;;
42194;SDS011;27863;49.440;11.102;2024-02-28T13:37:07;7.83;;;7.07;;
42194;SDS011;27863;49.440;11.102;2024-02-28T13:40:08;8.77;;;8.00;;
42194;SDS011;27863;49.440;11.102;2024-02-28T13:43:10;8.00;;;7.23;;
42194;SDS011;27863;49.440;11.102;2024-02-28T13:46:11;9.07;;;8.17;;
42194;SDS011;27863;49.440;11.102;2024-02-28T13:49:16;9.20;;;8.40;;
42194;SDS011;27863;49.440;11.102;2024-02-28T13:52:17;7.73;;;7.03;;
42194;SDS011;27863;49.440;11.102;2024-02-28T13:55:17;9.17;;;7.63;;
42194;SDS011;27863;49.440;11.102;2024-02-28T13:58:18;9.53;;;8.67;;
42194;SDS011;27863;49.440;11.102;2024-02-28T14:01:19;10.90;;;8.97;;
42194;SDS011;27863;49.440;11.102;2024-02-28T14:04:20;11.27;;;9.23;;
42194;SDS011;27863;49.440;11.102;2024-02-28T14:07:20;9.80;;;8.13;;
42194;SDS011;27863;49.440;11.102;2024-02-28T14:10:26;9.27;;;8.37;;
42194;SDS011;27863;49.440;11.102;2024-02-28T14:13:26;8.60;;;7.83;;
42194;SDS011;27863;49.440;11.102;2024-02-28T14:16:27;9.77;;;8.87;;
42194;SDS011;27863;49.440;11.102;2024-02-28T14:19:28;7.97;;;7.17;;
42194;SDS011;27863;49.440;11.102;2024-02-28T14:22:29;8.80;;;7.90;;
42194;SDS011;27863;49.440;11.102;2024-02-28T14:25:30;9.20;;;8.40;;
42194;SDS011;27863;49.440;11.102;2024-02-28T14:28:30;9.90;;;8.50;;
42194;SDS011;27863;49.440;11.102;2024-02-28T14:31:31;8.23;;;7.43;;
42194;SDS011;27863;49.440;11.102;2024-02-28T14:34:33;9.57;;;8.67;;
42194;SDS011;27863;49.440;11.102;2024-02-28T14:37:36;8.57;;;7.80;;
42194;SDS011;27863;49.440;11.102;2024-02-28T14:40:37;9.47;;;8.57;;
42194;SDS011;27863;49.440;11.102;2024-02-28T14:43:37;8.80;;;8.00;;
42194;SDS011;27863;49.440;11.102;2024-02-28T14:46:39;9.00;;;8.10;;
42194;SDS011;27863;49.440;11.102;2024-02-28T14:49:39;10.53;;;9.47;;
42194;SDS011;27863;49.440;11.102;2024-02-28T14:52:40;10.07;;;9.07;;
42194;SDS011;27863;49.440;11.102;2024-02-28T14:55:41;9.70;;;7.80;;
42194;SDS011;27863;49.440;11.102;2024-02-28T14:58:45;8.80;;;8.00;;
42194;SDS011;27863;49.440;11.102;2024-02-28T15:01:46;12.80;;;11.53;;
42194;SDS011;27863;49.440;11.102;2024-02-28T15:04:46;15.80;;;9.17;;
42194;SDS011;27863;49.440;11.102;2024-02-28T15:07:50;9.10;;;8.20;;
42194;SDS011;27863;49.440;11.102;2024-02-28T15:10:54;8.83;;;8.03;;
42194;SDS011;27863;49.440;11.102;2024-02-28T15:13:55;8.90;;;8.10;;
42194;SDS011;27863;49.440;11.102;2024-02-28T15:16:55;9.77;;;7.93;;
42194;SDS011;27863;49.440;11.102;2024-02-28T15:19:59;10.07;;;8.27;;
42194;SDS011;27863;49.440;11.102;2024-02-28T15:23:03;9.57;;;8.67;;
42194;SDS011;27863;49.440;11.102;2024-02-28T15:26:04;10.43;;;9.43;;
42194;SDS011;27863;49.440;11.102;2024-02-28T15:29:04;9.73;;;8.83;;
42194;SDS011;27863;49.440;11.102;2024-02-28T15:32:05;10.73;;;9.77;;
42194;SDS011;27863;49.440;11.102;2024-02-28T15:35:10;9.13;;;8.23;;
42194;SDS011;27863;49.440;11.102;2024-02-28T15:38:11;10.40;;;9.50;;
42194;SDS011;27863;49.440;11.102;2024-02-28T15:41:13;9.57;;;8.57;;
42194;SDS011;27863;49.440;11.102;2024-02-28T15:44:14;8.70;;;7.90;;
42194;SDS011;27863;49.440;11.102;2024-02-28T15:47:15;10.30;;;8.53;;
42194;SDS011;27863;49.440;11.102;2024-02-28T15:50:15;15.37;;;13.87;;
42194;SDS011;27863;49.440;11.102;2024-02-28T15:53:19;10.63;;;9.53;;
42194;SDS011;27863;49.440;11.102;2024-02-28T15:56:20;9.27;;;8.47;;
42194;SDS011;27863;49.440;11.102;2024-02-28T15:59:20;10.03;;;7.83;;
42194;SDS011;27863;49.440;11.102;2024-02-28T16:02:21;9.37;;;8.47;;
42194;SDS011;27863;49.440;11.102;2024-02-28T16:05:21;13.67;;;12.23;;
42194;SDS011;27863;49.440;11.102;2024-02-28T16:08:26;10.10;;;9.07;;
42194;SDS011;27863;49.440;11.102;2024-02-28T16:11:27;11.10;;;9.43;;
42194;SDS011;27863;49.440;11.102;2024-02-28T16:14:28;10.63;;;9.37;;
42194;SDS011;27863;49.440;11.102;2024-02-28T16:17:28;10.53;;;9.17;;
42194;SDS011;27863;49.440;11.102;2024-02-28T16:20:30;10.80;;;9.27;;
42194;SDS011;27863;49.440;11.102;2024-02-28T16:23:31;11.00;;;9.97;;
42194;SDS011;27863;49.440;11.102;2024-02-28T16:26:34;10.77;;;8.83;;
42194;SDS011;27863;49.440;11.102;2024-02-28T16:29:34;10.43;;;8.73;;
42194;SDS011;27863;49.440;11.102;2024-02-28T16:32:35;11.97;;;9.47;;
42194;SDS011;27863;49.440;11.102;2024-02-28T16:35:36;11.27;;;10.23;;
42194;SDS011;27863;49.440;11.102;2024-02-28T16:38:39;11.77;;;10.00;;
42194;SDS011;27863;49.440;11.102;2024-02-28T16:41:40;11.80;;;10.57;;
42194;SDS011;27863;49.440;11.102;2024-02-28T16:44:42;11.40;;;10.30;;
42194;SDS011;27863;49.440;11.102;2024-02-28T16:47:43;14.83;;;11.63;;
42194;SDS011;27863;49.440;11.102;2024-02-28T16:50:44;13.40;;;12.07;;
42194;SDS011;27863;49.440;11.102;2024-02-28T16:53:45;14.77;;;12.93;;
42194;SDS011;27863;49.440;11.102;2024-02-28T16:56:46;13.57;;;12.23;;
42194;SDS011;27863;49.440;11.102;2024-02-28T16:59:47;11.27;;;10.27;;
42194;SDS011;27863;49.440;11.102;2024-02-28T17:02:47;15.20;;;11.17;;
42194;SDS011;27863;49.440;11.102;2024-02-28T17:05:48;17.50;;;11.73;;
42194;SDS011;27863;49.440;11.102;2024-02-28T17:08:48;12.30;;;10.80;;
42194;SDS011;27863;49.440;11.102;2024-02-28T17:11:49;18.13;;;12.37;;
42194;SDS011;27863;49.440;11.102;2024-02-28T17:14:49;13.43;;;12.10;;
42194;SDS011;27863;49.440;11.102;2024-02-28T17:17:50;19.40;;;13.33;;
42194;SDS011;27863;49.440;11.102;2024-02-28T17:20:50;14.70;;;12.90;;
42194;SDS011;27863;49.440;11.102;2024-02-28T17:23:51;14.63;;;12.90;;
42194;SDS011;27863;49.440;11.102;2024-02-28T17:26:51;14.23;;;12.73;;
42194;SDS011;27863;49.440;11.102;2024-02-28T17:29:52;16.73;;;12.20;;